Time;durP1;ratioP1;P1;durP2;ratioP2;P2;SDS_P1;SDS_P2;PMS_P1;PMS_P2;Temp;Humidity;BMP_temperature;BMP_pressure;BME280_temperature;BME280_humidity;BME280_pressure;Samples;Min_cycle;Max_cycle;Signal;HPM_P1;HPM_P2
2022/06/23 00:00:24;;;;;;;;;;;;;;;25.59;100.00;97602.91;5029798;28;20020;-81
2022/06/23 00:02:51;;;;;;;;;;;;;;;25.64;100.00;97597.91;5029833;28;19933;-82
2022/06/23 00:05:21;;;;;;;;;;;;;;;25.73;100.00;97598.44;5016742;28;19981;-81
2022/06/23 00:07:50;;;;;;;;;;;;;;;25.75;100.00;97607.06;5034684;28;19972;-81
2022/06/23 00:10:18;;;;;;;;;;;;;;;25.77;100.00;97615.69;5026598;28;19951;-82
2022/06/23 00:12:46;;;;;;;;;;;;;;;25.78;100.00;97628.19;5013587;28;20480;-83
2022/06/23 00:15:18;;;;;;;;;;;;;;;25.80;100.00;97629.78;5024539;28;20748;-81
2022/06/23 00:17:45;;;;;;;;;;;;;;;25.81;100.00;97620.44;5028546;28;20048;-81
2022/06/23 00:20:13;;;;;;;;;;;;;;;25.82;100.00;97635.66;5005957;28;19929;-81
2022/06/23 00:22:40;;;;;;;;;;;;;;;25.79;100.00;97634.47;5032548;28;19928;-82
2022/06/23 00:25:08;;;;;;;;;;;;;;;25.74;100.00;97627.38;5024548;28;20246;-82
2022/06/23 00:27:37;;;;;;;;;;;;;;;25.78;100.00;97611.78;5021747;28;19929;-82
2022/06/23 00:30:04;;;;;;;;;;;;;;;25.75;100.00;97606.25;5033699;28;20036;-81
2022/06/23 00:32:32;;;;;;;;;;;;;;;25.78;100.00;97605.53;5014155;28;20021;-82
2022/06/23 00:35:00;;;;;;;;;;;;;;;25.78;100.00;97606.31;5025345;28;19932;-82
2022/06/23 00:37:26;;;;;;;;;;;;;;;25.77;100.00;97607.50;5026285;28;20296;-84
2022/06/23 00:39:54;;;;;;;;;;;;;;;25.71;100.00;97598.03;5030407;28;20082;-82
2022/06/23 00:42:22;;;;;;;;;;;;;;;25.73;100.00;97601.16;5031128;28;19947;-81
2022/06/23 00:44:52;;;;;;;;;;;;;;;25.70;100.00;97607.38;5024228;28;20286;-82
2022/06/23 00:47:20;;;;;;;;;;;;;;;25.65;100.00;97607.72;5016681;28;19935;-82
2022/06/23 00:49:49;;;;;;;;;;;;;;;25.50;100.00;97608.63;5005450;28;20411;-81
2022/06/23 00:52:19;;;;;;;;;;;;;;;25.59;100.00;97602.91;5021185;28;20366;-82
2022/06/23 00:54:49;;;;;;;;;;;;;;;25.56;100.00;97598.19;5026853;28;19968;-81
2022/06/23 00:57:21;;;;;;;;;;;;;;;25.63;100.00;97587.34;5033543;28;19935;-82
2022/06/23 00:59:49;;;;;;;;;;;;;;;25.68;100.00;97600.72;5000421;28;20372;-81
2022/06/23 01:02:17;;;;;;;;;;;;;;;25.68;100.00;97595.25;5027275;28;19935;-81
2022/06/23 01:04:47;;;;;;;;;;;;;;;25.62;100.00;97592.03;5036583;28;19929;-81
2022/06/23 01:07:25;;;;;;;;;;;;;;;25.59;100.00;97600.94;5021588;28;19924;-81
2022/06/23 01:09:53;;;;;;;;;;;;;;;25.56;100.00;97609.88;5020023;28;20404;-81
2022/06/23 01:12:23;;;;;;;;;;;;;;;25.59;100.00;97606.41;5040101;28;20039;-81
2022/06/23 01:14:51;;;;;;;;;;;;;;;25.59;100.00;97606.41;5040811;28;20027;-81
2022/06/23 01:17:19;;;;;;;;;;;;;;;25.57;100.00;97602.47;5039443;28;19964;-81
2022/06/23 01:20:00;;;;;;;;;;;;;;;25.54;100.00;97601.28;5042186;28;19925;-82
2022/06/23 01:22:32;;;;;;;;;;;;;;;25.57;100.00;97607.94;5040688;28;19925;-82
2022/06/23 01:25:06;;;;;;;;;;;;;;;25.54;100.00;97611.41;5031908;28;20532;-81
2022/06/23 01:27:57;;;;;;;;;;;;;;;25.52;100.00;97606.34;5027457;28;20522;-81
2022/06/23 01:30:26;;;;;;;;;;;;;;;25.49;100.00;97598.06;5022863;28;20432;-82
2022/06/23 01:32:55;;;;;;;;;;;;;;;25.51;100.00;97612.16;5008914;28;19929;-83
2022/06/23 01:35:26;;;;;;;;;;;;;;;25.50;100.00;97608.63;5026925;28;19935;-82
2022/06/23 01:37:55;;;;;;;;;;;;;;;25.56;100.00;97601.69;5036772;28;19955;-82
2022/06/23 01:40:24;;;;;;;;;;;;;;;25.52;100.00;97606.34;5014013;28;19997;-82
2022/06/23 01:42:56;;;;;;;;;;;;;;;25.50;100.00;97596.94;5034225;28;19973;-83
2022/06/23 01:45:25;;;;;;;;;;;;;;;25.49;100.00;97601.59;5017132;28;20453;-81
2022/06/23 01:47:54;;;;;;;;;;;;;;;25.53;100.00;97610.63;5032578;28;19948;-82
2022/06/23 01:50:35;;;;;;;;;;;;;;;25.28;100.00;97606.72;5031685;28;19931;-81
2022/06/23 01:53:21;;;;;;;;;;;;;;;24.97;100.00;97602.28;5035934;28;19931;-83
2022/06/23 01:56:03;;;;;;;;;;;;;;;24.93;100.00;97611.56;5024916;28;19925;-82
2022/06/23 01:58:47;;;;;;;;;;;;;;;24.89;100.00;97618.91;5014158;28;20172;-81
2022/06/23 02:01:16;;;;;;;;;;;;;;;25.05;100.00;97609.44;5037816;28;20016;-83
2022/06/23 02:03:44;;;;;;;;;;;;;;;25.16;100.00;97607.66;5036844;28;20084;-82
2022/06/23 02:06:16;;;;;;;;;;;;;;;25.27;100.00;97612.53;5036009;28;19962;-83
2022/06/23 02:08:45;;;;;;;;;;;;;;;25.30;100.00;97604.38;5040382;28;19931;-81
2022/06/23 02:11:14;;;;;;;;;;;;;;;25.13;100.00;97610.34;5036629;28;19925;-81
2022/06/23 02:13:44;;;;;;;;;;;;;;;24.78;100.00;97621.41;5032675;28;19976;-81
2022/06/23 02:16:15;;;;;;;;;;;;;;;24.45;100.00;97619.22;5035479;28;20496;-80
2022/06/23 02:18:47;;;;;;;;;;;;;;;24.34;100.00;97618.22;5036147;28;19996;-82
2022/06/23 02:21:20;;;;;;;;;;;;;;;24.23;100.00;97614.50;5041806;28;19935;-81
2022/06/23 02:23:49;;;;;;;;;;;;;;;24.61;100.00;97613.66;5035854;28;19940;-81
2022/06/23 02:26:20;;;;;;;;;;;;;;;24.68;100.00;97608.34;5026166;28;20015;-81
2022/06/23 02:28:54;;;;;;;;;;;;;;;24.64;100.00;97610.22;5033605;28;19931;-82
2022/06/23 02:31:23;;;;;;;;;;;;;;;24.86;100.00;97616.88;5022718;28;19956;-82
2022/06/23 02:33:52;;;;;;;;;;;;;;;24.98;100.00;97612.03;5025374;28;20086;-82
2022/06/23 02:36:25;;;;;;;;;;;;;;;25.10;100.00;97613.78;5019814;28;20009;-82
2022/06/23 02:38:54;;;;;;;;;;;;;;;25.19;100.00;97614.38;5021657;28;19929;-82
2022/06/23 02:41:23;;;;;;;;;;;;;;;25.22;100.00;97614.41;5018502;28;19929;-81
2022/06/23 02:43:54;;;;;;;;;;;;;;;25.15;100.00;97608.84;5036064;28;20749;-81
2022/06/23 02:46:32;;;;;;;;;;;;;;;24.56;100.00;97606.56;5025543;28;19940;-81
2022/06/23 02:49:10;;;;;;;;;;;;;;;24.67;100.00;97613.00;5032884;28;19932;-81
2022/06/23 02:51:49;;;;;;;;;;;;;;;24.87;100.00;97608.34;5031834;28;20038;-82
2022/06/23 02:54:24;;;;;;;;;;;;;;;24.94;100.00;97604.94;5019356;28;19987;-81
2022/06/23 02:57:03;;;;;;;;;;;;;;;24.66;100.00;97616.13;5019269;28;20054;-82
2022/06/23 02:59:34;;;;;;;;;;;;;;;24.29;100.00;97612.28;5027256;28;19929;-81
2022/06/23 03:02:04;;;;;;;;;;;;;;;24.55;100.00;97623.31;5031367;28;19940;-82
2022/06/23 03:04:33;;;;;;;;;;;;;;;24.73;100.00;97623.66;5013641;28;20139;-82
2022/06/23 03:07:02;;;;;;;;;;;;;;;24.88;100.00;97620.06;5036415;28;20023;-82
2022/06/23 03:09:31;;;;;;;;;;;;;;;24.99;100.00;97629.22;5038285;28;19979;-82
2022/06/23 03:12:02;;;;;;;;;;;;;;;25.08;100.00;97633.31;5019825;28;19975;-82
2022/06/23 03:14:38;;;;;;;;;;;;;;;25.14;100.00;97633.78;5030160;28;20201;-81
2022/06/23 03:17:13;;;;;;;;;;;;;;;25.18;100.00;97635.44;5026889;28;20020;-82
2022/06/23 03:19:42;;;;;;;;;;;;;;;25.21;100.00;97639.38;5034068;28;19979;-81
2022/06/23 03:22:13;;;;;;;;;;;;;;;25.21;100.00;97639.38;5032916;28;19933;-82
2022/06/23 03:24:42;;;;;;;;;;;;;;;24.94;100.00;97638.53;5023062;28;20059;-81
2022/06/23 03:27:14;;;;;;;;;;;;;;;24.94;100.00;97637.72;5022534;28;19935;-82
2022/06/23 03:29:46;;;;;;;;;;;;;;;25.02;100.00;97639.44;5019891;28;19932;-80
2022/06/23 03:32:15;;;;;;;;;;;;;;;24.99;100.00;97645.63;5033870;28;20023;-82
2022/06/23 03:34:44;;;;;;;;;;;;;;;25.05;100.00;97647.69;5035198;28;20015;-81
2022/06/23 03:37:14;;;;;;;;;;;;;;;25.11;100.00;97648.19;5033357;28;20011;-82
2022/06/23 03:42:32;;;;;;;;;;;;;;;25.14;100.00;97645.50;5030961;28;20104;-82
2022/06/23 03:45:05;;;;;;;;;;;;;;;25.13;100.00;97651.31;5015603;28;20029;-81
2022/06/23 03:47:37;;;;;;;;;;;;;;;25.08;100.00;97652.44;5021550;28;19940;-81
2022/06/23 03:50:06;;;;;;;;;;;;;;;25.08;100.00;97657.09;5028302;28;20464;-81
2022/06/23 03:52:36;;;;;;;;;;;;;;;25.17;100.00;97660.38;5027554;28;19947;-81
2022/06/23 03:55:07;;;;;;;;;;;;;;;25.15;100.00;97657.22;5026831;28;19925;-81
2022/06/23 03:57:37;;;;;;;;;;;;;;;25.08;100.00;97662.56;5034378;28;19925;-81
2022/06/23 04:00:14;;;;;;;;;;;;;;;25.15;100.00;97676.38;5025679;28;20076;-81
2022/06/23 04:02:42;;;;;;;;;;;;;;;25.22;100.00;97681.97;5026580;28;20348;-82
2022/06/23 04:05:13;;;;;;;;;;;;;;;25.23;100.00;97678.84;5015875;28;20323;-81
2022/06/23 04:07:45;;;;;;;;;;;;;;;25.23;100.00;97683.53;5035885;28;20385;-81
2022/06/23 04:10:13;;;;;;;;;;;;;;;25.17;100.00;97676.78;5028572;28;19929;-81
2022/06/23 04:12:43;;;;;;;;;;;;;;;25.23;100.00;97686.25;5006200;28;20072;-82
2022/06/23 04:15:12;;;;;;;;;;;;;;;25.23;100.00;97678.06;5035732;28;19924;-81
2022/06/23 04:17:41;;;;;;;;;;;;;;;25.19;100.00;97682.69;5005648;28;19925;-81
2022/06/23 04:20:14;;;;;;;;;;;;;;;24.85;100.00;97689.09;5028353;28;20366;-81
2022/06/23 04:22:42;;;;;;;;;;;;;;;24.67;100.00;97689.47;5035146;28;19924;-81
2022/06/23 04:25:09;;;;;;;;;;;;;;;24.54;100.00;97685.31;5035788;28;19925;-82
2022/06/23 04:27:38;;;;;;;;;;;;;;;24.38;100.00;97706.44;5017544;28;20072;-81
2022/06/23 04:30:05;;;;;;;;;;;;;;;24.35;100.00;97709.88;5032642;28;20379;-81
2022/06/23 04:32:35;;;;;;;;;;;;;;;24.54;100.00;97718.06;5024338;28;19935;-82
2022/06/23 04:35:08;;;;;;;;;;;;;;;24.69;100.00;97719.16;5029384;28;20171;-81
2022/06/23 04:37:40;;;;;;;;;;;;;;;24.79;100.00;97724.03;5020828;28;19964;-81
2022/06/23 04:40:17;;;;;;;;;;;;;;;24.84;100.00;97725.72;5033157;28;19935;-81
2022/06/23 04:42:46;;;;;;;;;;;;;;;24.85;100.00;97732.78;5027303;28;19924;-81
2022/06/23 04:45:33;;;;;;;;;;;;;;;24.90;100.00;97733.28;5024061;28;19925;-82
2022/06/23 04:48:03;;;;;;;;;;;;;;;24.97;100.00;97736.16;5012706;28;19933;-81
2022/06/23 04:50:38;;;;;;;;;;;;;;;25.01;100.00;97730.72;5027381;28;20031;-81
2022/06/23 04:53:06;;;;;;;;;;;;;;;24.99;100.00;97735.78;5030564;28;19925;-81
2022/06/23 04:55:34;;;;;;;;;;;;;;;25.06;100.00;97738.66;5032780;28;19936;-80
2022/06/23 04:58:03;;;;;;;;;;;;;;;24.93;100.00;97735.28;5023546;28;19999;-81
2022/06/23 05:00:31;;;;;;;;;;;;;;;24.93;100.00;97748.16;5026378;28;20024;-82
2022/06/23 05:03:00;;;;;;;;;;;;;;;24.91;100.00;97745.00;5032755;28;19925;-81
2022/06/23 05:05:30;;;;;;;;;;;;;;;24.89;100.00;97745.34;5034320;28;20257;-81
2022/06/23 05:08:01;;;;;;;;;;;;;;;24.95;100.00;97751.31;5034763;28;19932;-81
2022/06/23 05:10:29;;;;;;;;;;;;;;;24.92;100.00;97752.03;5033503;28;19931;-82
2022/06/23 05:12:58;;;;;;;;;;;;;;;24.99;100.00;97749.44;5026971;28;19957;-81
2022/06/23 05:15:27;;;;;;;;;;;;;;;25.07;100.00;97741.00;5019645;28;19929;-82
2022/06/23 05:17:55;;;;;;;;;;;;;;;24.97;100.00;97741.63;5031423;28;19959;-81
2022/06/23 05:20:31;;;;;;;;;;;;;;;24.97;100.00;97741.63;5038474;28;20032;-82
2022/06/23 05:23:02;;;;;;;;;;;;;;;24.82;100.00;97733.50;5015841;28;20023;-81
2022/06/23 05:25:40;;;;;;;;;;;;;;;24.79;100.00;97736.94;5033925;28;19960;-81
2022/06/23 05:28:09;;;;;;;;;;;;;;;24.53;100.00;97746.53;5029335;28;20453;-82
2022/06/23 05:30:38;;;;;;;;;;;;;;;24.50;100.00;97749.97;5025632;28;19947;-82
2022/06/23 05:33:07;;;;;;;;;;;;;;;24.52;100.00;97755.06;5032061;28;19939;-81
2022/06/23 05:35:36;;;;;;;;;;;;;;;24.47;100.00;97745.25;5033673;28;19937;-81
2022/06/23 05:38:05;;;;;;;;;;;;;;;24.44;100.00;97750.63;5029348;28;19936;-81
2022/06/23 05:40:34;;;;;;;;;;;;;;;24.31;100.00;97758.13;5029419;28;19947;-82
2022/06/23 05:43:02;;;;;;;;;;;;;;;24.06;100.00;97756.75;5014276;28;19955;-81
2022/06/23 05:45:29;;;;;;;;;;;;;;;23.99;100.00;97757.34;5017026;28;19931;-82
2022/06/23 05:47:57;;;;;;;;;;;;;;;23.80;100.00;97756.50;5024852;28;19925;-80
2022/06/23 05:50:27;;;;;;;;;;;;;;;23.84;100.00;97758.16;5027772;28;19933;-81
2022/06/23 05:52:55;;;;;;;;;;;;;;;23.50;100.00;97773.28;5026615;28;20020;-82
2022/06/23 05:55:26;;;;;;;;;;;;;;;23.63;100.00;97758.44;5019371;28;19929;-82
2022/06/23 05:57:56;;;;;;;;;;;;;;;23.61;100.00;97765.41;5027778;28;20093;-81
2022/06/23 06:00:26;;;;;;;;;;;;;;;23.44;100.00;97763.78;5030901;28;20413;-82
2022/06/23 06:02:55;;;;;;;;;;;;;;;23.46;100.00;97766.16;5031363;28;19933;-80
2022/06/23 06:05:25;;;;;;;;;;;;;;;23.64;100.00;97768.19;5020651;28;20104;-81
2022/06/23 06:07:52;;;;;;;;;;;;;;;23.73;100.00;97764.50;5018488;28;19940;-82
2022/06/23 06:10:20;;;;;;;;;;;;;;;23.56;100.00;97760.97;5036359;28;19928;-81
2022/06/23 06:12:49;;;;;;;;;;;;;;;23.43;100.00;97772.31;5013454;28;19929;-80
2022/06/23 06:15:18;;;;;;;;;;;;;;;23.39;100.00;97771.41;5035102;28;19925;-81
2022/06/23 06:17:45;;;;;;;;;;;;;;;23.05;100.00;97778.28;5035088;28;20001;-83
2022/06/23 06:20:12;;;;;;;;;;;;;;;23.10;100.00;97780.75;5008220;28;20439;-82
2022/06/23 06:22:43;;;;;;;;;;;;;;;23.12;100.00;97787.41;5018529;28;19947;-82
2022/06/23 06:25:16;;;;;;;;;;;;;;;23.36;100.00;97772.91;5040756;28;19961;-83
2022/06/23 06:27:43;;;;;;;;;;;;;;;23.72;100.00;97771.09;5026501;28;20084;-81
2022/06/23 06:30:15;;;;;;;;;;;;;;;23.72;100.00;97768.38;5027073;28;20301;-82
2022/06/23 06:32:42;;;;;;;;;;;;;;;23.53;100.00;97760.88;5031249;28;19935;-82
2022/06/23 06:35:15;;;;;;;;;;;;;;;23.23;100.00;97765.94;5032600;28;20404;-82
2022/06/23 06:37:44;;;;;;;;;;;;;;;23.66;100.00;97754.22;5008335;28;19951;-82
2022/06/23 06:40:10;;;;;;;;;;;;;;;23.67;100.00;97761.25;5028970;28;19984;-82
2022/06/23 06:42:39;;;;;;;;;;;;;;;23.52;100.00;97764.78;5031319;28;19931;-82
2022/06/23 06:45:08;;;;;;;;;;;;;;;23.29;100.00;97753.63;5038090;28;19932;-81
2022/06/23 06:47:36;;;;;;;;;;;;;;;23.55;100.00;97748.47;5029728;28;20413;-82
2022/06/23 06:50:06;;;;;;;;;;;;;;;23.99;100.00;97753.84;5032243;28;19924;-81
2022/06/23 06:52:33;;;;;;;;;;;;;;;24.49;100.00;97747.59;5036719;28;19936;-81
2022/06/23 06:55:03;;;;;;;;;;;;;;;24.88;100.00;97748.44;5037422;28;20011;-82
2022/06/23 06:57:32;;;;;;;;;;;;;;;25.22;100.00;97753.03;5037615;28;20490;-81
2022/06/23 07:00:04;;;;;;;;;;;;;;;25.46;100.00;97749.94;5037092;28;20008;-82
2022/06/23 07:02:34;;;;;;;;;;;;;;;25.71;100.00;97747.66;5027658;28;19929;-82
2022/06/23 07:05:04;;;;;;;;;;;;;;;25.56;100.00;97743.88;5034743;28;19932;-81
2022/06/23 07:07:34;;;;;;;;;;;;;;;25.33;100.00;97745.00;5039382;28;19971;-82
2022/06/23 07:10:03;;;;;;;;;;;;;;;25.27;100.00;97743.72;5024257;28;20028;-80
2022/06/23 07:12:32;;;;;;;;;;;;;;;25.62;100.00;97744.41;5025355;28;19929;-80
2022/06/23 07:15:04;;;;;;;;;;;;;;;25.52;100.00;97745.00;5035092;28;19933;-81
2022/06/23 07:17:34;;;;;;;;;;;;;;;25.36;100.00;97755.22;5021250;28;19992;-82
2022/06/23 07:20:05;;;;;;;;;;;;;;;25.14;100.00;97754.03;5029849;28;19928;-80
2022/06/23 07:22:36;;;;;;;;;;;;;;;25.30;100.00;97753.94;5033403;28;20586;-80
2022/06/23 07:25:05;;;;;;;;;;;;;;;25.11;100.00;97749.28;5027800;28;20012;-80
2022/06/23 07:27:35;;;;;;;;;;;;;;;25.33;100.00;97747.75;5021556;28;20017;-80
2022/06/23 07:30:04;;;;;;;;;;;;;;;25.22;100.00;97744.81;5034271;28;19928;-80
2022/06/23 07:32:40;;;;;;;;;;;;;;;25.22;100.00;97753.03;5030632;28;20418;-82
2022/06/23 07:35:14;;;;;;;;;;;;;;;25.40;100.00;97748.66;5010325;28;20784;-81
2022/06/23 07:37:43;;;;;;;;;;;;;;;25.61;100.00;97743.59;5035341;28;19935;-82
2022/06/23 07:40:11;;;;;;;;;;;;;;;25.61;100.00;97745.53;5017868;28;19928;-82
2022/06/23 07:42:42;;;;;;;;;;;;;;;25.36;100.00;97742.34;5031023;28;20032;-82
2022/06/23 07:45:12;;;;;;;;;;;;;;;25.12;100.00;97742.69;5027238;28;19971;-81
2022/06/23 07:47:39;;;;;;;;;;;;;;;25.34;100.00;97741.13;5027035;28;20136;-81
2022/06/23 07:50:06;;;;;;;;;;;;;;;25.39;100.00;97747.06;5025557;28;19936;-81
2022/06/23 07:52:33;;;;;;;;;;;;;;;25.48;100.00;97746.84;5033666;28;19989;-81
2022/06/23 07:55:01;;;;;;;;;;;;;;;25.71;100.00;97743.00;5025434;28;19955;-80
2022/06/23 07:57:29;;;;;;;;;;;;;;;25.21;100.00;97745.97;5035633;28;19925;-81
2022/06/23 07:59:59;;;;;;;;;;;;;;;25.05;100.00;97745.25;5007445;28;19931;-81
2022/06/23 08:02:28;;;;;;;;;;;;;;;25.02;100.00;97745.97;5030994;28;19929;-81
2022/06/23 08:05:03;;;;;;;;;;;;;;;25.04;100.00;97743.69;5037793;28;19924;-81
2022/06/23 08:07:29;;;;;;;;;;;;;;;24.98;100.00;97745.13;5030747;28;20060;-82
2022/06/23 08:10:00;;;;;;;;;;;;;;;24.94;100.00;97757.94;5034841;28;20342;-79
2022/06/23 08:18:04;;;;;;;;;;;;;;;24.52;100.00;97744.94;5026436;28;19986;-81
2022/06/23 08:20:31;;;;;;;;;;;;;;;24.67;100.00;97744.09;5015021;28;20008;-80
2022/06/23 08:22:59;;;;;;;;;;;;;;;25.04;100.00;97736.28;5019565;28;19937;-80
2022/06/23 08:25:28;;;;;;;;;;;;;;;25.22;100.00;97742.09;5013994;28;19980;-82
2022/06/23 08:27:55;;;;;;;;;;;;;;;25.06;100.00;97738.66;5023899;28;20611;-81
2022/06/23 08:30:23;;;;;;;;;;;;;;;25.06;100.00;97730.47;5017570;28;20016;-82
2022/06/23 08:32:51;;;;;;;;;;;;;;;24.99;100.00;97730.31;5035002;28;20578;-80
2022/06/23 08:35:22;;;;;;;;;;;;;;;25.17;100.00;97732.22;5028141;28;19925;-81
2022/06/23 08:37:53;;;;;;;;;;;;;;;25.38;100.00;97733.78;5016328;28;19967;-80
2022/06/23 08:40:22;;;;;;;;;;;;;;;25.40;100.00;97729.53;5009105;28;19924;-82
2022/06/23 08:42:53;;;;;;;;;;;;;;;25.59;100.00;97723.25;5032133;28;20041;-80
2022/06/23 08:45:23;;;;;;;;;;;;;;;25.72;100.00;97722.66;5017300;28;19966;-80
2022/06/23 08:47:51;;;;;;;;;;;;;;;25.25;100.00;97728.47;5020482;28;20088;-81
2022/06/23 08:50:22;;;;;;;;;;;;;;;25.34;100.00;97727.47;5026254;28;20172;-81
2022/06/23 08:52:51;;;;;;;;;;;;;;;25.40;100.00;97720.53;5021657;28;19943;-81
2022/06/23 08:55:22;;;;;;;;;;;;;;;25.65;100.00;97722.56;5020446;28;20498;-80
2022/06/23 08:57:51;;;;;;;;;;;;;;;25.62;100.00;97723.31;5026891;28;20525;-81
2022/06/23 09:00:21;;;;;;;;;;;;;;;25.47;100.00;97715.19;5026338;28;19928;-80
2022/06/23 09:02:51;;;;;;;;;;;;;;;24.94;100.00;97730.63;5028017;28;19997;-80
2022/06/23 09:05:20;;;;;;;;;;;;;;;24.73;100.00;97719.25;5029854;28;19929;-80
2022/06/23 09:07:50;;;;;;;;;;;;;;;24.74;100.00;97729.78;5033831;28;20066;-79
2022/06/23 09:10:25;;;;;;;;;;;;;;;24.67;100.00;97719.50;5034302;28;19952;-81
2022/06/23 09:12:54;;;;;;;;;;;;;;;24.73;100.00;97726.28;5017231;28;19932;-80
2022/06/23 09:15:40;;;;;;;;;;;;;;;24.68;100.00;97728.50;5016547;28;19928;-79
2022/06/23 09:18:18;;;;;;;;;;;;;;;24.75;100.00;97727.84;5032818;28;19947;-80
2022/06/23 09:20:53;;;;;;;;;;;;;;;24.69;100.00;97736.34;5029929;28;19935;-81
2022/06/23 09:23:30;;;;;;;;;;;;;;;24.66;100.00;97728.84;5027818;28;19929;-81
2022/06/23 09:26:02;;;;;;;;;;;;;;;24.60;100.00;97730.28;5007943;28;19933;-80
2022/06/23 09:28:37;;;;;;;;;;;;;;;24.75;100.00;97727.84;5033144;28;20028;-80
2022/06/23 09:31:15;;;;;;;;;;;;;;;24.75;100.00;97727.84;5039977;28;19935;-80
2022/06/23 09:33:48;;;;;;;;;;;;;;;24.68;100.00;97725.78;5038112;28;19925;-81
2022/06/23 09:36:29;;;;;;;;;;;;;;;24.80;100.00;97733.03;5028427;28;20103;-80
2022/06/23 09:39:04;;;;;;;;;;;;;;;24.90;100.00;97729.75;5010646;28;19933;-81
2022/06/23 09:41:39;;;;;;;;;;;;;;;25.09;100.00;97727.81;5031943;28;20116;-80
2022/06/23 09:44:17;;;;;;;;;;;;;;;25.17;100.00;97725.97;5027496;28;20071;-81
2022/06/23 09:46:57;;;;;;;;;;;;;;;25.14;100.00;97729.44;5028810;28;20364;-79
2022/06/23 09:49:36;;;;;;;;;;;;;;;25.19;100.00;97716.25;5018198;28;19925;-80
2022/06/23 09:52:17;;;;;;;;;;;;;;;25.44;100.00;97726.88;5033604;28;20331;-80
2022/06/23 09:54:54;;;;;;;;;;;;;;;25.53;100.00;97724.72;5033220;28;20020;-80
2022/06/23 09:57:32;;;;;;;;;;;;;;;25.41;100.00;97724.84;5029963;28;20031;-79
2022/06/23 10:00:08;;;;;;;;;;;;;;;25.60;100.00;97725.59;5027260;28;20029;-80
2022/06/23 10:02:41;;;;;;;;;;;;;;;25.79;100.00;97713.78;5028621;28;20019;-79
2022/06/23 10:05:16;;;;;;;;;;;;;;;25.81;100.00;97707.97;5028405;28;19928;-80
2022/06/23 10:08:00;;;;;;;;;;;;;;;25.90;100.00;97708.50;5032597;28;19963;-81
2022/06/23 10:10:33;;;;;;;;;;;;;;;26.00;100.00;97702.38;5030651;28;19955;-81
2022/06/23 10:13:13;;;;;;;;;;;;;;;25.84;100.00;97696.28;5038021;28;20122;-82
2022/06/23 10:15:46;;;;;;;;;;;;;;;25.97;100.00;97697.63;5015329;28;20414;-82
2022/06/23 10:18:32;;;;;;;;;;;;;;;26.19;100.00;97688.59;5041209;28;19928;-79
2022/06/23 10:21:06;;;;;;;;;;;;;;;26.28;100.00;97695.41;5033946;28;19928;-79
2022/06/23 10:23:42;;;;;;;;;;;;;;;26.24;100.00;97674.63;5023841;28;19935;-80
2022/06/23 10:26:19;;;;;;;;;;;;;;;26.34;100.00;97679.44;5038015;28;20013;-80
2022/06/23 10:28:57;;;;;;;;;;;;;;;26.18;100.00;97676.09;5013885;28;19935;-82
2022/06/23 10:31:31;;;;;;;;;;;;;;;26.40;100.00;97671.69;5028033;28;19936;-80
2022/06/23 10:34:07;;;;;;;;;;;;;;;26.51;100.00;97678.88;5033495;28;19928;-81
2022/06/23 10:36:51;;;;;;;;;;;;;;;26.50;100.00;97674.56;5035416;28;19925;-79
2022/06/23 10:39:29;;;;;;;;;;;;;;;26.38;100.00;97688.47;5032375;28;20578;-80
2022/06/23 10:42:05;;;;;;;;;;;;;;;26.44;100.00;97669.78;5035161;28;19925;-80
2022/06/23 10:44:54;;;;;;;;;;;;;;;26.29;100.00;97677.03;5034515;28;19929;-80
2022/06/23 10:47:31;;;;;;;;;;;;;;;26.63;100.00;97658.66;5014353;28;20628;-80
2022/06/23 10:50:09;;;;;;;;;;;;;;;26.51;100.00;97667.91;5027175;28;19971;-80
2022/06/23 10:52:59;;;;;;;;;;;;;;;26.61;100.00;97661.78;5029001;28;19933;-80
2022/06/23 10:55:32;;;;;;;;;;;;;;;26.69;100.00;97654.44;5017639;28;20023;-81
2022/06/23 10:58:14;;;;;;;;;;;;;;;26.83;100.00;97662.06;5030877;28;20011;-79
2022/06/23 11:00:48;;;;;;;;;;;;;;;26.73;100.00;97650.56;5027113;28;19964;-80
2022/06/23 11:03:28;;;;;;;;;;;;;;;26.85;100.00;97652.28;5032899;28;19929;-79
2022/06/23 11:06:03;;;;;;;;;;;;;;;26.88;100.00;97648.81;5033288;28;19928;-78
2022/06/23 11:08:44;;;;;;;;;;;;;;;26.94;100.00;97638.28;5016725;28;20565;-79
2022/06/23 11:11:19;;;;;;;;;;;;;;;27.05;100.00;97642.69;5030869;28;19929;-80
2022/06/23 11:13:51;;;;;;;;;;;;;;;26.97;100.00;97638.31;5025550;28;19971;-80
2022/06/23 11:16:24;;;;;;;;;;;;;;;27.07;100.00;97640.38;5017510;28;19940;-80
2022/06/23 11:18:58;;;;;;;;;;;;;;;27.20;100.00;97632.66;5029944;28;19924;-80
2022/06/23 11:21:32;;;;;;;;;;;;;;;27.19;100.00;97629.13;5031634;28;19944;-80
2022/06/23 11:24:01;;;;;;;;;;;;;;;27.10;100.00;97628.66;5016846;28;19931;-79
2022/06/23 11:26:35;;;;;;;;;;;;;;;27.08;100.00;97624.72;5024664;28;19933;-80
2022/06/23 11:29:13;;;;;;;;;;;;;;;27.04;100.00;97629.38;5028078;28;19929;-80
2022/06/23 11:31:47;;;;;;;;;;;;;;;27.11;100.00;97626.72;5026029;28;19975;-80
2022/06/23 11:34:29;;;;;;;;;;;;;;;27.20;99.52;97624.44;5016141;28;19933;-81
2022/06/23 11:37:07;;;;;;;;;;;;;;;27.24;100.00;97612.31;5038810;28;20028;-80
2022/06/23 11:40:03;;;;;;;;;;;;;;;27.37;100.00;97612.81;5032095;28;19924;-80
2022/06/23 11:42:47;;;;;;;;;;;;;;;27.32;96.79;97611.25;5024102;28;19929;-80
2022/06/23 11:45:19;;;;;;;;;;;;;;;27.29;98.47;97605.72;5001835;28;20517;-80
2022/06/23 11:47:52;;;;;;;;;;;;;;;27.41;97.83;97613.66;5025742;28;19925;-80
2022/06/23 11:50:23;;;;;;;;;;;;;;;27.53;99.82;97607.09;5025272;28;19940;-81
2022/06/23 11:52:59;;;;;;;;;;;;;;;27.68;97.46;97606.81;5022712;28;19935;-81
2022/06/23 11:55:30;;;;;;;;;;;;;;;27.58;98.30;97593.81;5028074;28;19960;-80
2022/06/23 11:58:08;;;;;;;;;;;;;;;27.77;98.11;97601.78;5027248;28;20030;-81
2022/06/23 12:00:39;;;;;;;;;;;;;;;27.80;96.83;97611.19;5026623;28;19925;-82
2022/06/23 12:03:17;;;;;;;;;;;;;;;27.74;97.51;97607.22;5012164;28;20043;-81
2022/06/23 12:05:45;;;;;;;;;;;;;;;27.69;97.43;97599.38;5025485;28;19925;-81
2022/06/23 12:08:27;;;;;;;;;;;;;;;27.65;95.54;97598.56;5031265;28;19929;-82
2022/06/23 12:10:53;;;;;;;;;;;;;;;27.59;95.78;97595.38;5022223;28;19925;-81
2022/06/23 12:13:22;;;;;;;;;;;;;;;27.54;93.03;97594.97;5020153;28;19929;-81
2022/06/23 12:15:49;;;;;;;;;;;;;;;27.55;90.41;97594.56;5030067;28;19938;-82
2022/06/23 12:18:18;;;;;;;;;;;;;;;27.56;92.18;97585.19;5027722;28;19971;-81
2022/06/23 12:20:48;;;;;;;;;;;;;;;27.58;94.01;97591.06;5010036;28;20000;-81
2022/06/23 12:23:20;;;;;;;;;;;;;;;27.52;94.83;97584.34;5033787;28;20034;-80
2022/06/23 12:25:51;;;;;;;;;;;;;;;27.61;92.01;97579.31;5030956;28;19933;-82
2022/06/23 12:28:22;;;;;;;;;;;;;;;27.50;92.10;97573.00;5019440;28;19928;-81
2022/06/23 12:30:52;;;;;;;;;;;;;;;27.55;90.49;97569.88;5021511;28;20412;-81
2022/06/23 12:33:21;;;;;;;;;;;;;;;27.69;88.14;97566.44;5019469;28;19952;-81
2022/06/23 12:35:50;;;;;;;;;;;;;;;27.69;89.91;97564.50;5039208;28;20019;-81
2022/06/23 12:38:21;;;;;;;;;;;;;;;27.58;89.14;97563.63;5019667;28;19936;-81
2022/06/23 12:40:51;;;;;;;;;;;;;;;27.73;90.02;97550.81;5029704;28;19935;-80
2022/06/23 12:43:23;;;;;;;;;;;;;;;27.82;93.27;97557.50;5022199;28;20023;-81
2022/06/23 12:46:03;;;;;;;;;;;;;;;28.03;89.82;97561.53;5018308;28;20475;-81
2022/06/23 12:48:44;;;;;;;;;;;;;;;28.06;88.10;97561.56;5004628;28;20371;-81
2022/06/23 12:51:16;;;;;;;;;;;;;;;27.99;83.54;97553.28;5019204;28;20352;-82
2022/06/23 12:53:51;;;;;;;;;;;;;;;27.94;84.19;97558.34;5033926;28;20280;-82
2022/06/23 12:56:29;;;;;;;;;;;;;;;28.05;84.40;97550.97;5021417;28;19936;-81
2022/06/23 12:58:58;;;;;;;;;;;;;;;27.99;86.21;97544.25;5018237;28;19925;-80
2022/06/23 13:01:30;;;;;;;;;;;;;;;28.06;84.20;97538.81;5030861;28;19997;-82
2022/06/23 13:03:58;;;;;;;;;;;;;;;28.03;84.59;97536.81;5029381;28;20019;-81
2022/06/23 13:06:31;;;;;;;;;;;;;;;27.89;85.42;97532.03;5034065;28;19929;-81
2022/06/23 13:09:03;;;;;;;;;;;;;;;28.03;86.14;97531.34;5019601;28;20596;-82